Kezdőlap
METAR-TAF:

METAR-TAF

Repülőterek :

New Haven, Connecticut, Amerikai Egyesült Államok

földrajzi szélesség: 41-15-50N, földrajzi hosszúság: 072-53-14W, magasság: 4 m

Jelenlegi meteorológiai megfigyelések

A jelentés 31 perccel ezelõtt készült, 17:53 UTC
Délnyugati szél 9 kt széllökések: 15 kt
Hőmérséklet 9°C
Páratartalom 37%
Légköri nyomás 1020 hPa
Látótávolság: 16.1 km
Derült ég

METAR: KHVN 231753Z 22009G15KT 10SM CLR 09/M05 A3013 RMK AO2 SLP203 T00941050 10094 21067 58020

Idő: 13:24 (18:24 UTC)


TAF: hiányzik

Meteorológiai megfigyelések és előrejelzések több, mint 4000 repülőtéren (METAR és TAF jelentéseket).

A térképen piros és sárga pontok jelzik az elérhető meteorológiai állomásokat.

Mozgassa az egeret a pont fölött, hogy megjelenjen az állomás neve.

Azután kattintson az időjárási megfigyelések és előrejelzések megtekintéséhez.

A térkép megváltoztatása: kattintson a fekete keresztel jelölt zöld gombra ráközelítéshez, a vonallal jelölt zöld gombra távolításhoz, vagy a zöld nyilakra a szomszédos térképek eléréséhez.


METAR-TAF: